Time;durP1;ratioP1;P1;durP2;ratioP2;P2;SDS_P1;SDS_P2;PMS_P1;PMS_P2;Temp;Humidity;BMP_temperature;BMP_pressure;BME280_temperature;BME280_humidity;BME280_pressure;Samples;Min_cycle;Max_cycle;Signal;HPM_P1;HPM_P2
2023/07/03 00:00:42;;;;;;;;;;;;;;;15.42;65.62;101022.84;5103740;27;20297;-44
2023/07/03 00:03:08;;;;;;;;;;;;;;;15.39;66.70;101028.84;5100147;27;19968;-44
2023/07/03 00:05:35;;;;;;;;;;;;;;;15.40;66.86;101028.00;5099306;28;19972;-44
2023/07/03 00:08:00;;;;;;;;;;;;;;;15.39;65.54;101028.00;5107160;27;19924;-44
2023/07/03 00:10:25;;;;;;;;;;;;;;;15.35;67.79;101019.34;5085343;28;19937;-44
2023/07/03 00:12:51;;;;;;;;;;;;;;;15.36;66.11;101015.88;5076488;28;19927;-44
2023/07/03 00:15:16;;;;;;;;;;;;;;;15.30;67.78;101010.63;5091811;28;19943;-44
2023/07/03 00:17:44;;;;;;;;;;;;;;;15.28;67.56;101015.78;5090942;28;19923;-57
2023/07/03 00:20:13;;;;;;;;;;;;;;;15.26;68.15;101016.63;5097171;28;19920;-58
2023/07/03 00:22:39;;;;;;;;;;;;;;;15.23;67.73;101017.47;5069505;28;19990;-59
2023/07/03 00:25:04;;;;;;;;;;;;;;;15.20;68.19;101012.25;5087453;28;19924;-58
2023/07/03 00:27:29;;;;;;;;;;;;;;;15.20;67.48;101012.25;5096726;27;20461;-58
2023/07/03 00:29:55;;;;;;;;;;;;;;;15.15;67.69;101018.22;5099145;28;19955;-58
2023/07/03 00:32:20;;;;;;;;;;;;;;;15.15;67.64;101018.22;5089754;28;20010;-58
2023/07/03 00:34:45;;;;;;;;;;;;;;;15.17;68.70;101011.34;5071359;28;19924;-62
2023/07/03 00:37:10;;;;;;;;;;;;;;;15.15;69.00;101007.84;5065862;28;20000;-58
2023/07/03 00:39:36;;;;;;;;;;;;;;;15.14;69.21;101019.94;5076259;28;19925;-58
2023/07/03 00:42:01;;;;;;;;;;;;;;;15.15;69.11;101018.22;5073677;28;19998;-58
2023/07/03 00:44:26;;;;;;;;;;;;;;;15.14;68.84;101022.53;5081126;28;19926;-58
2023/07/03 00:46:51;;;;;;;;;;;;;;;15.13;68.46;101019.94;5075655;28;20264;-58
2023/07/03 00:49:18;;;;;;;;;;;;;;;15.13;68.38;101018.19;5064424;28;20337;-58
2023/07/03 00:51:45;;;;;;;;;;;;;;;15.13;67.75;101012.16;5075517;28;21213;-58
2023/07/03 00:54:11;;;;;;;;;;;;;;;15.11;69.38;101011.28;5066559;28;20418;-59
2023/07/03 00:56:36;;;;;;;;;;;;;;;15.10;70.16;100996.56;5078839;28;19960;-59
2023/07/03 00:59:02;;;;;;;;;;;;;;;15.06;70.55;101003.44;5070562;28;20290;-57
2023/07/03 01:01:34;;;;;;;;;;;;;;;15.11;70.12;101009.56;5085272;28;20022;-59
2023/07/03 01:04:07;;;;;;;;;;;;;;;15.08;70.28;101006.06;5075099;28;19936;-58
2023/07/03 01:06:39;;;;;;;;;;;;;;;15.12;71.03;101000.06;5073040;28;20607;-59
2023/07/03 01:09:06;;;;;;;;;;;;;;;15.09;69.94;100997.41;5076397;28;19924;-58
2023/07/03 01:11:31;;;;;;;;;;;;;;;15.07;70.52;100993.97;5068699;28;20274;-58
2023/07/03 01:13:59;;;;;;;;;;;;;;;15.08;69.72;101004.31;5077494;28;20437;-59
2023/07/03 01:16:24;;;;;;;;;;;;;;;15.06;70.77;101003.44;5086535;28;19955;-59
2023/07/03 01:18:52;;;;;;;;;;;;;;;15.07;71.07;100991.38;5085369;28;19963;-58
2023/07/03 01:21:29;;;;;;;;;;;;;;;15.04;70.86;101005.13;5067079;28;20436;-58
2023/07/03 01:24:00;;;;;;;;;;;;;;;15.06;69.90;101003.44;5072787;28;19984;-58
2023/07/03 01:26:26;;;;;;;;;;;;;;;15.01;72.65;101002.53;5073666;28;19920;-59
2023/07/03 01:28:54;;;;;;;;;;;;;;;15.04;72.05;101015.50;5064729;28;20011;-58
2023/07/03 01:31:21;;;;;;;;;;;;;;;15.03;71.47;101013.75;5080227;28;20011;-43
2023/07/03 01:33:47;;;;;;;;;;;;;;;15.03;71.46;100999.09;5078739;28;20406;-44
2023/07/03 01:36:12;;;;;;;;;;;;;;;15.06;71.54;101000.00;5067849;28;19923;-45
2023/07/03 01:38:45;;;;;;;;;;;;;;;15.02;71.99;100999.06;5081280;28;19925;-44
2023/07/03 01:41:11;;;;;;;;;;;;;;;15.02;72.39;100993.91;5071372;28;20411;-44
2023/07/03 01:43:37;;;;;;;;;;;;;;;15.01;72.91;100997.34;5074623;28;20994;-43
2023/07/03 01:46:03;;;;;;;;;;;;;;;14.99;72.90;100997.34;5080052;28;19920;-43
2023/07/03 01:48:30;;;;;;;;;;;;;;;14.99;72.75;100999.91;5055976;28;19931;-44
2023/07/03 01:50:55;;;;;;;;;;;;;;;15.02;70.96;101006.84;5080407;28;19980;-44
2023/07/03 01:53:25;;;;;;;;;;;;;;;14.99;73.56;100999.91;5077980;28;20368;-47
2023/07/03 01:55:56;;;;;;;;;;;;;;;15.00;73.17;101009.41;5077033;28;19922;-43
2023/07/03 01:58:24;;;;;;;;;;;;;;;15.01;73.62;100995.63;5066697;28;19924;-44
2023/07/03 02:00:55;;;;;;;;;;;;;;;15.01;74.17;100998.22;5063384;28;20432;-47
2023/07/03 02:03:23;;;;;;;;;;;;;;;15.00;74.80;101004.25;5087208;28;19971;-44
2023/07/03 02:05:49;;;;;;;;;;;;;;;14.94;74.19;100999.00;5067735;28;19924;-44
2023/07/03 02:08:15;;;;;;;;;;;;;;;14.93;73.33;100997.25;5086841;28;19924;-45
2023/07/03 02:10:40;;;;;;;;;;;;;;;14.91;75.34;100996.34;5079115;28;19935;-43
2023/07/03 02:13:05;;;;;;;;;;;;;;;14.92;75.33;100992.91;5067306;28;19925;-43
2023/07/03 02:15:31;;;;;;;;;;;;;;;14.95;74.66;100986.91;5082230;28;20442;-44
2023/07/03 02:17:57;;;;;;;;;;;;;;;14.91;76.37;100986.00;5082433;28;19920;-44
2023/07/03 02:20:22;;;;;;;;;;;;;;;14.89;75.86;100994.59;5068818;28;19966;-46
2023/07/03 02:22:47;;;;;;;;;;;;;;;14.89;76.07;100990.28;5084963;28;19925;-44
2023/07/03 02:25:13;;;;;;;;;;;;;;;14.88;76.42;100973.03;5071707;28;19933;-59
2023/07/03 02:27:42;;;;;;;;;;;;;;;14.89;75.91;100981.66;5066505;28;19985;-58
2023/07/03 02:30:07;;;;;;;;;;;;;;;14.81;78.98;100975.53;5081501;28;20018;-59
2023/07/03 02:32:37;;;;;;;;;;;;;;;14.78;77.74;100970.28;5073402;28;20098;-59
2023/07/03 02:35:03;;;;;;;;;;;;;;;14.72;77.97;100969.38;5047507;28;19985;-59
2023/07/03 02:37:28;;;;;;;;;;;;;;;14.73;78.63;100971.09;5077310;28;19925;-59
2023/07/03 02:39:53;;;;;;;;;;;;;;;14.64;79.88;100973.56;5084352;28;20409;-58
2023/07/03 02:42:18;;;;;;;;;;;;;;;14.63;80.44;100968.38;5086082;28;19931;-58
2023/07/03 02:44:44;;;;;;;;;;;;;;;14.61;80.31;100964.88;5069058;28;20038;-59
2023/07/03 02:47:09;;;;;;;;;;;;;;;14.55;81.35;100967.41;5073247;28;20370;-59
2023/07/03 02:49:34;;;;;;;;;;;;;;;14.47;82.28;100963.00;5069127;28;20356;-59
2023/07/03 02:51:59;;;;;;;;;;;;;;;14.42;82.73;100967.19;5076608;28;19920;-59
2023/07/03 02:54:24;;;;;;;;;;;;;;;14.37;83.03;100953.31;5087902;28;20011;-58
2023/07/03 02:56:50;;;;;;;;;;;;;;;14.29;81.15;100957.53;5072177;28;19971;-59
2023/07/03 02:59:15;;;;;;;;;;;;;;;14.24;82.40;100956.59;5069804;28;20337;-58
2023/07/03 03:01:40;;;;;;;;;;;;;;;14.23;81.92;100965.19;5075409;28;19936;-59
2023/07/03 03:04:06;;;;;;;;;;;;;;;14.17;81.58;100954.78;5066215;28;20299;-60
2023/07/03 03:06:31;;;;;;;;;;;;;;;14.14;81.95;100963.38;5077066;28;19946;-60
2023/07/03 03:08:57;;;;;;;;;;;;;;;14.08;84.14;100959.81;5071809;28;20436;-59
2023/07/03 03:11:22;;;;;;;;;;;;;;;14.03;82.36;100954.56;5079188;28;19927;-59
2023/07/03 03:13:47;;;;;;;;;;;;;;;13.97;85.41;100956.19;5071224;28;19927;-59
2023/07/03 03:16:12;;;;;;;;;;;;;;;13.90;84.85;100958.69;5085120;28;20898;-59
2023/07/03 03:18:38;;;;;;;;;;;;;;;13.86;84.16;100953.44;5079872;28;19928;-58
2023/07/03 03:21:03;;;;;;;;;;;;;;;13.79;87.12;100956.75;5064710;28;19963;-58
2023/07/03 03:23:29;;;;;;;;;;;;;;;13.75;86.90;100954.97;5083191;28;20017;-59
2023/07/03 03:25:54;;;;;;;;;;;;;;;13.68;87.52;100954.84;5079638;28;20367;-58
2023/07/03 03:28:19;;;;;;;;;;;;;;;13.69;84.73;100947.97;5076451;28;20418;-58
2023/07/03 03:30:45;;;;;;;;;;;;;;;13.68;86.03;100949.69;5082070;28;19924;-59
2023/07/03 03:33:10;;;;;;;;;;;;;;;13.69;90.75;100947.97;5062474;28;19928;-59
2023/07/03 03:35:36;;;;;;;;;;;;;;;13.66;89.99;100950.53;5067462;28;19983;-59
2023/07/03 03:38:01;;;;;;;;;;;;;;;13.67;89.15;100949.69;5069636;28;19924;-59
2023/07/03 03:40:26;;;;;;;;;;;;;;;13.68;90.53;100956.56;5073555;28;19924;-60
2023/07/03 03:42:51;;;;;;;;;;;;;;;13.67;89.42;100958.28;5067735;28;19926;-59
2023/07/03 03:45:17;;;;;;;;;;;;;;;13.63;90.37;100956.50;5069898;28;20011;-59
2023/07/03 03:47:42;;;;;;;;;;;;;;;13.63;90.66;100951.31;5060725;28;19924;-59
2023/07/03 03:50:07;;;;;;;;;;;;;;;13.60;90.04;100955.59;5071675;28;20002;-59
2023/07/03 03:52:32;;;;;;;;;;;;;;;13.57;90.46;100958.09;5063974;28;19973;-59
2023/07/03 03:54:58;;;;;;;;;;;;;;;13.58;91.76;100963.28;5068806;28;20000;-59
2023/07/03 03:57:24;;;;;;;;;;;;;;;13.53;92.71;100964.06;5070739;28;19962;-58
2023/07/03 03:59:49;;;;;;;;;;;;;;;13.52;92.13;100967.47;5069960;28;20310;-59
2023/07/03 04:02:15;;;;;;;;;;;;;;;13.52;94.89;100968.34;5059235;28;19960;-58
2023/07/03 04:04:40;;;;;;;;;;;;;;;13.52;94.81;100967.47;5074412;28;19921;-58
2023/07/03 04:07:06;;;;;;;;;;;;;;;13.49;95.22;100980.34;5074680;28;19932;-58
2023/07/03 04:09:31;;;;;;;;;;;;;;;13.45;94.45;100970.81;5074417;28;19947;-58
2023/07/03 04:11:56;;;;;;;;;;;;;;;13.41;92.37;100963.00;5061210;28;19920;-58
2023/07/03 04:14:21;;;;;;;;;;;;;;;13.42;93.40;100969.06;5076091;28;20704;-59
2023/07/03 04:16:47;;;;;;;;;;;;;;;13.51;90.04;100961.44;5076979;28;19955;-59
2023/07/03 04:19:14;;;;;;;;;;;;;;;13.53;94.08;100964.06;5062700;28;20576;-59
2023/07/03 04:21:40;;;;;;;;;;;;;;;13.58;95.17;100965.00;5072650;28;19967;-58
2023/07/03 04:24:05;;;;;;;;;;;;;;;13.62;93.03;100961.63;5077562;28;19958;-58
2023/07/03 04:26:31;;;;;;;;;;;;;;;13.66;94.91;100966.03;5071013;28;20563;-59
2023/07/03 04:28:57;;;;;;;;;;;;;;;13.67;94.29;100962.59;5079015;28;20002;-57
2023/07/03 04:31:22;;;;;;;;;;;;;;;13.72;92.22;100960.97;5054157;28;20467;-59
2023/07/03 04:33:47;;;;;;;;;;;;;;;13.79;93.87;100956.75;5077691;28;19932;-58
2023/07/03 04:36:13;;;;;;;;;;;;;;;13.85;92.01;100964.63;5074948;28;19924;-58
2023/07/03 04:38:41;;;;;;;;;;;;;;;13.83;94.49;100974.94;5074434;28;19928;-59
2023/07/03 04:41:07;;;;;;;;;;;;;;;13.86;93.23;100987.91;5077225;28;20015;-59
2023/07/03 04:43:32;;;;;;;;;;;;;;;13.89;92.77;100987.97;5078600;28;20111;-58
2023/07/03 04:46:03;;;;;;;;;;;;;;;13.92;95.00;100994.88;5071089;28;20579;-58
2023/07/03 04:48:28;;;;;;;;;;;;;;;13.90;94.15;100994.00;5078521;28;19927;-58
2023/07/03 04:50:54;;;;;;;;;;;;;;;13.88;96.21;100991.38;5080472;28;19927;-58
2023/07/03 04:53:20;;;;;;;;;;;;;;;13.84;97.68;100987.00;5073017;28;19933;-58
2023/07/03 04:55:46;;;;;;;;;;;;;;;13.84;100.00;100991.31;5074156;28;19995;-58
2023/07/03 04:58:11;;;;;;;;;;;;;;;13.83;99.42;100995.63;5062459;28;19970;-58
2023/07/03 05:00:37;;;;;;;;;;;;;;;13.85;100.00;100987.88;5080193;28;20006;-58
2023/07/03 05:03:04;;;;;;;;;;;;;;;13.80;100.00;100998.13;5064178;28;19924;-58
2023/07/03 05:05:30;;;;;;;;;;;;;;;13.85;98.43;100999.09;5078181;28;19928;-57
2023/07/03 05:07:55;;;;;;;;;;;;;;;13.85;100.00;100998.22;5070734;28;19935;-57
2023/07/03 05:10:22;;;;;;;;;;;;;;;13.88;100.00;101006.00;5081319;28;19947;-57
2023/07/03 05:12:47;;;;;;;;;;;;;;;13.94;98.29;101001.81;5074786;28;19923;-57
2023/07/03 05:15:15;;;;;;;;;;;;;;;14.04;100.00;101007.16;5071689;28;19916;-57
2023/07/03 05:17:40;;;;;;;;;;;;;;;14.12;96.32;101003.81;5069377;28;19929;-57
2023/07/03 05:20:08;;;;;;;;;;;;;;;14.16;98.42;100999.59;5088978;28;19916;-57
2023/07/03 05:22:34;;;;;;;;;;;;;;;14.18;99.27;101001.34;5074291;28;19924;-58
2023/07/03 05:25:00;;;;;;;;;;;;;;;14.19;99.57;101002.19;5085524;28;20343;-58
2023/07/03 05:27:26;;;;;;;;;;;;;;;14.27;99.00;101003.22;5084426;28;19924;-57
2023/07/03 05:29:51;;;;;;;;;;;;;;;14.27;97.64;101008.38;5072212;28;20640;-57
2023/07/03 05:32:16;;;;;;;;;;;;;;;14.32;96.38;101016.19;5069035;28;19928;-58
2023/07/03 05:34:42;;;;;;;;;;;;;;;14.41;98.05;101016.34;5086317;28;20553;-58
2023/07/03 05:37:07;;;;;;;;;;;;;;;14.50;96.39;101011.34;5101907;27;19960;-58
2023/07/03 05:39:32;;;;;;;;;;;;;;;14.62;95.67;101021.88;5097635;28;19930;-58
2023/07/03 05:41:57;;;;;;;;;;;;;;;14.69;94.84;101020.22;5083818;28;19920;-58
2023/07/03 05:44:23;;;;;;;;;;;;;;;14.64;96.42;101015.00;5092835;27;20640;-58
2023/07/03 05:46:48;;;;;;;;;;;;;;;14.65;97.20;101021.91;5101078;27;19927;-58
2023/07/03 05:49:13;;;;;;;;;;;;;;;14.66;95.93;101018.47;5096169;28;20382;-58
2023/07/03 05:51:38;;;;;;;;;;;;;;;14.68;95.38;101026.22;5098738;28;19931;-58
2023/07/03 05:54:04;;;;;;;;;;;;;;;14.67;95.52;101020.19;5098905;28;20435;-57
2023/07/03 05:56:29;;;;;;;;;;;;;;;14.66;93.57;101028.81;5107767;27;19923;-57
2023/07/03 05:58:55;;;;;;;;;;;;;;;14.67;94.65;101030.53;5105163;28;19920;-57
2023/07/03 06:01:20;;;;;;;;;;;;;;;14.66;94.96;101036.56;5102947;28;19941;-45
2023/07/03 06:03:47;;;;;;;;;;;;;;;14.67;96.84;101035.72;5100878;28;20008;-46
2023/07/03 06:06:13;;;;;;;;;;;;;;;14.71;93.99;101031.47;5106194;27;20034;-44
2023/07/03 06:08:39;;;;;;;;;;;;;;;14.73;95.11;101038.41;5102325;28;19924;-45
2023/07/03 06:11:04;;;;;;;;;;;;;;;14.73;93.56;101040.97;5113691;27;19924;-57
2023/07/03 06:13:30;;;;;;;;;;;;;;;14.77;95.33;101036.72;5103028;28;19962;-57
2023/07/03 06:15:56;;;;;;;;;;;;;;;14.75;94.89;101044.47;5100528;27;19930;-58
2023/07/03 06:18:21;;;;;;;;;;;;;;;14.80;94.93;101048.84;5104019;28;19924;-58
2023/07/03 06:20:47;;;;;;;;;;;;;;;14.79;99.54;101037.59;5098067;27;19920;-56
2023/07/03 06:23:12;;;;;;;;;;;;;;;14.81;97.80;101038.53;5096639;28;19942;-56
2023/07/03 06:25:38;;;;;;;;;;;;;;;14.78;98.88;101035.88;5093128;28;19915;-57
2023/07/03 06:28:03;;;;;;;;;;;;;;;14.79;100.00;101035.03;5099615;28;19973;-56
2023/07/03 06:30:28;;;;;;;;;;;;;;;14.80;100.00;101041.06;5099615;28;20403;-56
2023/07/03 06:32:53;;;;;;;;;;;;;;;14.81;100.00;101035.94;5099679;28;20374;-57
2023/07/03 06:35:19;;;;;;;;;;;;;;;14.86;100.00;101036.84;5075433;28;20010;-56
2023/07/03 06:37:44;;;;;;;;;;;;;;;14.99;100.00;101038.75;5085195;28;19920;-56
2023/07/03 06:40:10;;;;;;;;;;;;;;;15.10;99.15;101038.88;5085869;28;20449;-56
2023/07/03 06:42:36;;;;;;;;;;;;;;;15.25;100.00;101040.78;5087278;28;19924;-56
2023/07/03 06:45:02;;;;;;;;;;;;;;;15.37;96.96;101029.72;5083205;28;19928;-57
2023/07/03 06:47:27;;;;;;;;;;;;;;;15.44;96.37;101032.38;5084097;28;19923;-56
2023/07/03 06:49:53;;;;;;;;;;;;;;;15.49;95.96;101025.53;5082859;28;20382;-56
2023/07/03 06:52:18;;;;;;;;;;;;;;;15.54;95.07;101031.63;5091181;28;19928;-57
2023/07/03 06:54:45;;;;;;;;;;;;;;;15.59;95.52;101031.66;5089630;28;19924;-57
2023/07/03 06:57:10;;;;;;;;;;;;;;;15.62;95.31;101034.31;5091312;28;19989;-57
2023/07/03 06:59:36;;;;;;;;;;;;;;;15.62;93.65;101030.84;5077553;28;20682;-57
2023/07/03 07:02:01;;;;;;;;;;;;;;;15.63;93.33;101040.38;5089122;28;20373;-57
2023/07/03 07:04:27;;;;;;;;;;;;;;;15.66;92.95;101043.00;5093509;28;19928;-57
2023/07/03 07:06:53;;;;;;;;;;;;;;;15.65;91.53;101039.56;5086272;28;20410;-57
2023/07/03 07:09:18;;;;;;;;;;;;;;;15.65;91.49;101047.34;5090402;28;19919;-57
2023/07/03 07:11:46;;;;;;;;;;;;;;;15.71;90.61;101062.03;5086801;28;19924;-57
2023/07/03 07:14:12;;;;;;;;;;;;;;;15.72;90.21;101067.28;5088408;28;19925;-58
2023/07/03 07:16:37;;;;;;;;;;;;;;;15.76;90.17;101057.78;5091652;28;19935;-56
2023/07/03 07:19:04;;;;;;;;;;;;;;;15.77;89.15;101051.75;5091462;28;19926;-58
2023/07/03 07:21:31;;;;;;;;;;;;;;;15.79;89.34;101057.84;5092698;28;19963;-58
2023/07/03 07:23:58;;;;;;;;;;;;;;;15.88;87.71;101063.09;5086945;28;19916;-58
2023/07/03 07:26:27;;;;;;;;;;;;;;;15.96;87.83;101056.28;5085052;28;19920;-58
2023/07/03 07:28:52;;;;;;;;;;;;;;;16.07;86.73;101058.94;5088160;28;20271;-56
2023/07/03 07:31:18;;;;;;;;;;;;;;;16.18;85.57;101046.06;5086943;28;19928;-56
2023/07/03 07:33:44;;;;;;;;;;;;;;;16.25;85.10;101060.81;5097303;28;19934;-57
2023/07/03 07:36:13;;;;;;;;;;;;;;;16.42;84.79;101056.63;5083059;28;19924;-57
2023/07/03 07:38:38;;;;;;;;;;;;;;;16.66;83.82;101060.25;5085861;28;19966;-58
2023/07/03 07:41:03;;;;;;;;;;;;;;;17.10;79.82;101069.16;5095697;28;19920;-57
2023/07/03 07:43:29;;;;;;;;;;;;;;;17.50;79.36;101061.53;5085082;28;19923;-58
2023/07/03 07:45:54;;;;;;;;;;;;;;;17.99;75.17;101066.84;5093814;28;19942;-57
2023/07/03 07:48:20;;;;;;;;;;;;;;;18.10;74.62;101070.34;5092936;28;19935;-57
2023/07/03 07:50:45;;;;;;;;;;;;;;;18.07;76.67;101072.94;5099537;28;20398;-58
2023/07/03 07:53:10;;;;;;;;;;;;;;;18.05;73.56;101069.47;5094301;28;19920;-53
2023/07/03 07:55:36;;;;;;;;;;;;;;;17.97;72.76;101063.41;5098165;28;19923;-54
2023/07/03 07:58:01;;;;;;;;;;;;;;;17.85;75.02;101066.84;5106050;28;19920;-54
2023/07/03 08:00:26;;;;;;;;;;;;;;;17.74;73.55;101071.16;5098351;28;19920;-55
2023/07/03 08:02:52;;;;;;;;;;;;;;;17.66;73.36;101078.91;5084516;28;20454;-53
2023/07/03 08:05:17;;;;;;;;;;;;;;;17.57;73.63;101078.00;5107513;27;19920;-56
2023/07/03 08:07:42;;;;;;;;;;;;;;;17.50;73.28;101073.66;5089503;27;20589;-50
2023/07/03 08:10:08;;;;;;;;;;;;;;;17.46;73.99;101070.19;5080161;28;19928;-56
2023/07/03 08:12:33;;;;;;;;;;;;;;;17.42;71.87;101084.91;5095536;27;19921;-55
2023/07/03 08:14:58;;;;;;;;;;;;;;;17.45;71.55;101077.97;5089805;28;20620;-55
2023/07/03 08:17:23;;;;;;;;;;;;;;;17.38;73.26;101083.16;5096066;27;20065;-56
2023/07/03 08:19:49;;;;;;;;;;;;;;;17.42;72.15;101079.72;5105611;27;19969;-55
2023/07/03 08:22:14;;;;;;;;;;;;;;;17.43;72.39;101083.19;5099655;28;19920;-57
2023/07/03 08:24:39;;;;;;;;;;;;;;;17.42;72.87;101074.50;5097621;28;20374;-56
2023/07/03 08:27:04;;;;;;;;;;;;;;;17.51;71.19;101088.41;5088313;28;19978;-58
2023/07/03 08:29:30;;;;;;;;;;;;;;;17.33;72.17;101074.47;5100601;28;19936;-56
2023/07/03 08:31:55;;;;;;;;;;;;;;;17.16;71.14;101091.72;5107479;27;20413;-57
2023/07/03 08:34:20;;;;;;;;;;;;;;;17.25;71.28;101090.91;5096488;27;19928;-55
2023/07/03 08:36:45;;;;;;;;;;;;;;;17.39;70.98;101094.41;5103683;27;19923;-57
2023/07/03 08:39:11;;;;;;;;;;;;;;;17.48;70.20;101093.59;5087994;28;19927;-57
2023/07/03 08:41:40;;;;;;;;;;;;;;;17.52;70.25;101097.94;5098729;27;19926;-56
2023/07/03 08:44:07;;;;;;;;;;;;;;;17.53;69.63;101097.94;5098677;28;19915;-57
2023/07/03 08:46:33;;;;;;;;;;;;;;;17.56;68.39;101103.16;5103281;28;19922;-57
2023/07/03 08:49:03;;;;;;;;;;;;;;;17.56;69.65;101104.88;5101962;28;19920;-56
2023/07/03 08:51:29;;;;;;;;;;;;;;;17.61;68.60;101104.03;5106217;27;19939;-57
2023/07/03 08:53:59;;;;;;;;;;;;;;;17.64;69.23;101103.16;5096124;27;20515;-56
2023/07/03 08:56:28;;;;;;;;;;;;;;;17.71;69.91;101107.50;5104670;27;19919;-57
2023/07/03 08:58:55;;;;;;;;;;;;;;;17.77;69.40;101099.75;5093103;27;19990;-56
2023/07/03 09:01:29;;;;;;;;;;;;;;;17.94;68.94;101099.81;5102288;27;19927;-56
2023/07/03 09:04:00;;;;;;;;;;;;;;;18.16;66.58;101100.72;5081694;28;20432;-57
2023/07/03 09:06:35;;;;;;;;;;;;;;;18.37;66.42;101110.25;5091934;27;19917;-56
2023/07/03 09:09:03;;;;;;;;;;;;;;;18.66;64.98;101107.63;5086764;28;19919;-57
2023/07/03 09:11:32;;;;;;;;;;;;;;;18.87;65.10;101102.44;5099002;28;19938;-56
2023/07/03 09:13:59;;;;;;;;;;;;;;;19.06;63.09;101105.84;5101102;27;20088;-57
2023/07/03 09:16:25;;;;;;;;;;;;;;;19.10;60.78;101107.56;5087143;28;20302;-57
2023/07/03 09:18:53;;;;;;;;;;;;;;;19.12;60.57;101104.97;5094736;28;19920;-57
2023/07/03 09:21:19;;;;;;;;;;;;;;;18.96;62.55;101097.19;5088099;28;19916;-56
2023/07/03 09:23:53;;;;;;;;;;;;;;;18.86;62.51;101105.00;5093886;28;19962;-57
2023/07/03 09:26:25;;;;;;;;;;;;;;;18.79;62.64;101114.59;5102784;28;19916;-57
2023/07/03 09:28:51;;;;;;;;;;;;;;;18.70;62.81;101115.47;5085935;27;19927;-61
2023/07/03 09:31:17;;;;;;;;;;;;;;;18.57;62.86;101116.34;5102760;28;19920;-58
2023/07/03 09:33:42;;;;;;;;;;;;;;;18.40;63.77;101115.47;5098690;27;19920;-59
2023/07/03 09:36:37;;;;;;;;;;;;;;;18.30;64.01;101116.31;5074217;28;19959;-59
2023/07/03 09:39:09;;;;;;;;;;;;;;;18.15;64.81;101119.78;5066582;28;19995;-58
2023/07/03 09:41:35;;;;;;;;;;;;;;;18.00;65.54;101120.63;5079509;28;20298;-56
2023/07/03 09:44:05;;;;;;;;;;;;;;;17.89;65.87;101112.78;5076165;28;19922;-57
2023/07/03 09:46:31;;;;;;;;;;;;;;;17.81;66.17;101121.47;5076907;28;19916;-53
2023/07/03 09:48:56;;;;;;;;;;;;;;;17.76;66.89;101120.56;5071141;28;19931;-56
2023/07/03 09:51:29;;;;;;;;;;;;;;;17.76;67.56;101115.38;5085055;28;19982;-58
2023/07/03 09:53:56;;;;;;;;;;;;;;;17.76;68.02;101129.25;5080255;28;19959;-58
2023/07/03 09:56:22;;;;;;;;;;;;;;;17.75;71.59;101129.25;5078180;28;19916;-49
2023/07/03 09:58:49;;;;;;;;;;;;;;;17.68;72.64;101131.78;5086335;28;19924;-51
2023/07/03 10:01:21;;;;;;;;;;;;;;;17.61;74.31;101132.66;5074561;28;19969;-47
2023/07/03 10:03:47;;;;;;;;;;;;;;;17.62;75.04;101134.38;5086229;28;19923;-49
2023/07/03 10:06:17;;;;;;;;;;;;;;;17.69;73.84;101132.66;5065319;28;19924;-49
2023/07/03 10:08:49;;;;;;;;;;;;;;;17.86;75.71;101118.00;5066314;28;19920;-48
2023/07/03 10:11:17;;;;;;;;;;;;;;;18.05;72.24;101129.31;5084240;28;19924;-49
2023/07/03 10:13:45;;;;;;;;;;;;;;;18.17;72.11;101118.91;5079632;28;20266;-50
2023/07/03 10:16:12;;;;;;;;;;;;;;;18.38;72.33;101122.38;5074084;28;19932;-48
2023/07/03 10:18:39;;;;;;;;;;;;;;;18.53;70.99;101122.41;5060386;28;20386;-48
2023/07/03 10:21:08;;;;;;;;;;;;;;;18.59;69.09;101124.13;5057774;28;20306;-52
2023/07/03 10:23:37;;;;;;;;;;;;;;;18.56;69.56;101125.00;5070066;28;20371;-51
2023/07/03 10:26:05;;;;;;;;;;;;;;;18.54;69.25;101124.13;5070554;28;19925;-51
2023/07/03 10:28:51;;;;;;;;;;;;;;;18.57;68.13;101128.50;5072171;28;19978;-50
2023/07/03 10:31:23;;;;;;;;;;;;;;;18.69;67.05;101118.97;5041805;28;19950;-51
2023/07/03 10:33:50;;;;;;;;;;;;;;;19.05;67.30;101119.75;5086761;28;19919;-47
2023/07/03 10:36:22;;;;;;;;;;;;;;;19.48;65.53;101111.78;5107418;27;19920;-46
2023/07/03 10:38:47;;;;;;;;;;;;;;;19.88;63.40;101119.41;5099555;28;19920;-49
2023/07/03 10:41:23;;;;;;;;;;;;;;;20.28;61.24;101107.81;5106106;27;20347;-48
2023/07/03 10:43:54;;;;;;;;;;;;;;;20.49;59.45;101108.53;5100346;28;20290;-51
2023/07/03 10:46:23;;;;;;;;;;;;;;;20.50;58.96;101116.34;5084977;28;19916;-47
2023/07/03 10:48:50;;;;;;;;;;;;;;;20.29;56.13;101104.31;5096351;27;19919;-48
2023/07/03 10:51:22;;;;;;;;;;;;;;;20.09;56.01;101112.31;5097178;27;19959;-48
2023/07/03 10:53:52;;;;;;;;;;;;;;;19.91;54.16;101124.63;5096270;28;19916;-49
2023/07/03 10:56:22;;;;;;;;;;;;;;;19.65;54.33;101129.97;5093469;28;20019;-47
2023/07/03 10:58:47;;;;;;;;;;;;;;;19.47;54.82;101130.88;5096629;28;19916;-46
2023/07/03 11:01:23;;;;;;;;;;;;;;;19.45;50.10;101114.38;5104313;27;19916;-48
2023/07/03 11:04:07;;;;;;;;;;;;;;;19.45;54.70;101112.66;5085431;28;19917;-47
2023/07/03 11:06:53;;;;;;;;;;;;;;;19.68;53.38;101122.13;5078467;28;20422;-50
2023/07/03 11:09:30;;;;;;;;;;;;;;;19.96;52.41;101117.59;5090230;28;19931;-51
2023/07/03 11:12:05;;;;;;;;;;;;;;;20.28;51.61;101113.03;5098656;28;19927;-51
2023/07/03 11:14:59;;;;;;;;;;;;;;;20.57;48.48;101112.84;5098397;27;20014;-47
2023/07/03 11:17:25;;;;;;;;;;;;;;;20.57;47.46;101114.59;5082295;28;19923;-51
2023/07/03 11:19:57;;;;;;;;;;;;;;;20.52;48.36;101117.22;5100339;28;19924;-49
2023/07/03 11:22:35;;;;;;;;;;;;;;;20.53;46.83;101107.63;5091818;28;20382;-48
2023/07/03 11:25:01;;;;;;;;;;;;;;;20.62;47.57;101115.38;5095553;28;20348;-52
2023/07/03 11:27:26;;;;;;;;;;;;;;;20.92;47.47;101108.97;5100562;28;20408;-51
2023/07/03 11:29:53;;;;;;;;;;;;;;;21.00;45.96;101109.78;5104987;28;20430;-48
2023/07/03 11:32:19;;;;;;;;;;;;;;;20.92;46.76;101123.81;5092737;28;19920;-50
2023/07/03 11:34:45;;;;;;;;;;;;;;;20.91;45.79;101115.09;5096353;27;19932;-46
2023/07/03 11:37:29;;;;;;;;;;;;;;;20.83;45.72;101125.63;5085236;28;19973;-48
2023/07/03 11:39:55;;;;;;;;;;;;;;;20.62;45.12;101125.81;5091758;28;20962;-49
2023/07/03 11:42:25;;;;;;;;;;;;;;;20.41;46.51;101121.63;5087611;28;20526;-47
2023/07/03 11:44:57;;;;;;;;;;;;;;;20.42;47.16;101122.50;5090539;28;19967;-49
2023/07/03 11:47:24;;;;;;;;;;;;;;;20.53;46.96;101107.63;5086491;28;19924;-50
2023/07/03 11:49:52;;;;;;;;;;;;;;;20.68;47.60;101107.47;5088530;28;19999;-48
2023/07/03 11:52:30;;;;;;;;;;;;;;;20.84;47.21;101103.84;5087466;28;19916;-48
2023/07/03 11:54:58;;;;;;;;;;;;;;;21.24;47.20;101105.16;5085176;28;19961;-47
2023/07/03 11:57:34;;;;;;;;;;;;;;;21.44;45.02;101111.03;5090346;28;20009;-50
2023/07/03 12:00:11;;;;;;;;;;;;;;;21.38;45.76;101111.97;5091721;28;19938;-47
2023/07/03 12:02:42;;;;;;;;;;;;;;;21.37;46.85;101120.72;5091407;28;19923;-46
2023/07/03 12:05:09;;;;;;;;;;;;;;;21.42;45.63;101118.91;5091010;28;19916;-51
2023/07/03 12:07:35;;;;;;;;;;;;;;;21.35;46.87;101118.97;5085262;28;20318;-52
2023/07/03 12:10:18;;;;;;;;;;;;;;;21.38;45.37;101118.97;5100058;28;19934;-50
2023/07/03 12:12:50;;;;;;;;;;;;;;;21.34;45.09;101119.88;5082386;28;20393;-49
2023/07/03 12:15:15;;;;;;;;;;;;;;;21.22;46.64;101123.47;5087539;28;19922;-48
2023/07/03 12:17:41;;;;;;;;;;;;;;;21.27;46.94;101126.91;5085768;28;20057;-48
2023/07/03 12:20:10;;;;;;;;;;;;;;;21.21;46.26;101129.59;5088460;28;20000;-48
2023/07/03 12:22:46;;;;;;;;;;;;;;;21.10;45.18;101134.06;5086188;28;19924;-48
2023/07/03 12:25:16;;;;;;;;;;;;;;;20.79;44.94;101134.38;5085882;28;19928;-47
2023/07/03 12:27:42;;;;;;;;;;;;;;;20.58;45.51;101132.84;5090546;28;19923;-51
2023/07/03 12:30:09;;;;;;;;;;;;;;;20.34;45.52;101131.28;5077126;28;19924;-51
2023/07/03 12:32:35;;;;;;;;;;;;;;;20.16;48.02;101135.75;5089520;28;20015;-50
2023/07/03 12:35:15;;;;;;;;;;;;;;;20.19;48.62;101128.75;5067211;28;19927;-53